createdAt,value
2023-03-05T00:02:26.157Z,100203.53
2023-03-05T00:05:40.856Z,100205.56
2023-03-05T00:08:45.962Z,100195.50
2023-03-05T00:11:53.785Z,100204.19
2023-03-05T00:15:01.298Z,100207.03
2023-03-05T00:18:09.504Z,100199.22
2023-03-05T00:21:23.349Z,100207.25
2023-03-05T00:24:45.576Z,100206.34
2023-03-05T00:27:47.859Z,100200.34
2023-03-05T00:30:50.348Z,100214.25
2023-03-05T00:34:01.608Z,100208.50
2023-03-05T00:37:09.265Z,100209.84
2023-03-05T00:40:23.429Z,100207.69
2023-03-05T00:43:29.688Z,100204.78
2023-03-05T00:46:37.992Z,100202.94
2023-03-05T00:49:43.165Z,100193.47
2023-03-05T00:52:49.607Z,100180.16
2023-03-05T00:55:58.383Z,100182.66
2023-03-05T00:59:04.181Z,100173.38
2023-03-05T01:02:06.415Z,100181.53
2023-03-05T01:05:13.103Z,100183.22
2023-03-05T01:08:24.268Z,100180.06
2023-03-05T01:11:53.021Z,100173.75
2023-03-05T01:14:55.686Z,100171.50
2023-03-05T01:18:06.354Z,100165.03
2023-03-05T01:21:19.546Z,100173.28
2023-03-05T01:24:23.787Z,100170.34
2023-03-05T01:27:41.353Z,100173.28
2023-03-05T01:30:43.608Z,100181.97
2023-03-05T01:34:04.593Z,100187.31
2023-03-05T01:37:10.089Z,100184.81
2023-03-05T01:40:16.420Z,100189.00
2023-03-05T01:43:26.305Z,100186.84
2023-03-05T01:46:41.004Z,100189.78
2023-03-05T01:49:49.862Z,100181.75
2023-03-05T01:52:58.360Z,100188.66
2023-03-05T01:56:03.829Z,100186.94
2023-03-05T01:59:07.065Z,100183.91
2023-03-05T02:02:21.349Z,100193.41
2023-03-05T02:05:36.331Z,100191.47
2023-03-05T02:08:48.599Z,100195.53
2023-03-05T02:12:06.420Z,100187.28
2023-03-05T02:15:16.748Z,100191.13
2023-03-05T02:18:24.913Z,100188.72
2023-03-05T02:21:49.485Z,100187.41
2023-03-05T02:24:58.750Z,100193.28
2023-03-05T02:28:27.499Z,100193.03
2023-03-05T02:31:31.293Z,100189.06
2023-03-05T02:34:43.238Z,100184.19
2023-03-05T02:37:51.136Z,100190.38
2023-03-05T02:40:56.280Z,100178.44
2023-03-05T02:44:00.893Z,100181.34
2023-03-05T02:47:11.938Z,100177.75
2023-03-05T02:50:14.614Z,100188.28
2023-03-05T02:53:23.187Z,100179.13
2023-03-05T02:56:42.150Z,100172.56
2023-03-05T02:59:48.958Z,100164.53
2023-03-05T03:02:53.677Z,100162.88
2023-03-05T03:06:02.267Z,100166.50
2023-03-05T03:09:08.049Z,100156.31
2023-03-05T03:12:26.151Z,100163.47
2023-03-05T03:15:32.797Z,100175.53
2023-03-05T03:18:38.594Z,100163.78
2023-03-05T03:21:47.147Z,100165.94
2023-03-05T03:25:04.701Z,100165.69
2023-03-05T03:28:12.222Z,100158.72
2023-03-05T03:31:22.648Z,100152.25
2023-03-05T03:34:32.799Z,100153.31
2023-03-05T03:37:38.790Z,100154.06
2023-03-05T03:40:50.740Z,100149.13
2023-03-05T03:44:03.087Z,100148.75
2023-03-05T03:47:07.388Z,100152.59
2023-03-05T03:50:17.300Z,100157.03
2023-03-05T03:53:31.870Z,100152.94
2023-03-05T03:56:39.736Z,100155.31
2023-03-05T03:59:51.217Z,100157.34
2023-03-05T04:02:56.475Z,100155.56
2023-03-05T04:05:58.770Z,100160.88
2023-03-05T04:09:03.955Z,100165.38
2023-03-05T04:12:12.736Z,100160.75
2023-03-05T04:15:21.646Z,100165.81
2023-03-05T04:18:32.661Z,100168.41
2023-03-05T04:21:41.321Z,100170.34
2023-03-05T04:24:54.905Z,100171.94
2023-03-05T04:28:23.493Z,100161.78
2023-03-05T04:31:26.866Z,100159.81
2023-03-05T04:34:43.529Z,100153.06
2023-03-05T04:38:03.167Z,100158.69
2023-03-05T04:41:08.956Z,100158.50
2023-03-05T04:44:15.437Z,100162.53
2023-03-05T04:47:21.280Z,100153.97
2023-03-05T04:50:31.715Z,100152.84
2023-03-05T04:53:36.193Z,100150.69
2023-03-05T04:56:47.011Z,100155.53
2023-03-05T04:59:49.397Z,100147.28
2023-03-05T05:03:04.265Z,100144.91
2023-03-05T05:06:15.764Z,100150.13
2023-03-05T05:09:19.511Z,100151.22
2023-03-05T05:12:26.022Z,100152.34
2023-03-05T05:15:33.387Z,100149.19
2023-03-05T05:18:41.243Z,100149.53
2023-03-05T05:21:47.836Z,100153.94
2023-03-05T05:25:02.300Z,100160.94
2023-03-05T05:28:12.683Z,100154.59
2023-03-05T05:31:24.823Z,100165.13
2023-03-05T05:34:27.390Z,100167.13
2023-03-05T05:37:36.021Z,100160.44
2023-03-05T05:40:40.687Z,100152.94
2023-03-05T05:43:56.315Z,100165.34
2023-03-05T05:47:07.651Z,100184.38
2023-03-05T05:50:18.524Z,100173.25
2023-03-05T05:53:26.945Z,100176.41
2023-03-05T05:56:34.292Z,100173.91
2023-03-05T05:59:40.208Z,100178.63
2023-03-05T06:02:44.925Z,100184.63
2023-03-05T06:05:47.784Z,100177.75
2023-03-05T06:08:52.829Z,100188.81
2023-03-05T06:12:00.778Z,100193.31
2023-03-05T06:15:06.566Z,100193.16
2023-03-05T06:18:08.782Z,100189.56
2023-03-05T06:21:16.880Z,100199.31
2023-03-05T06:24:23.487Z,100199.63
2023-03-05T06:27:36.180Z,100195.41
2023-03-05T06:30:43.789Z,100196.25
2023-03-05T06:33:47.312Z,100198.31
2023-03-05T06:36:58.464Z,100197.78
2023-03-05T06:40:03.789Z,100199.13
2023-03-05T06:43:16.746Z,100196.16
2023-03-05T06:46:31.668Z,100201.75
2023-03-05T06:49:42.658Z,100198.84
2023-03-05T06:52:52.306Z,100198.94
2023-03-05T06:56:04.124Z,100200.50
2023-03-05T06:59:16.123Z,100187.09
2023-03-05T07:02:30.582Z,100187.50
2023-03-05T07:05:38.005Z,100187.50
2023-03-05T07:08:41.895Z,100188.41
2023-03-05T07:11:44.483Z,100197.91
2023-03-05T07:14:46.780Z,100194.03
2023-03-05T07:17:52.119Z,100187.75
2023-03-05T07:21:01.440Z,100193.78
2023-03-05T07:24:16.286Z,100197.19
2023-03-05T07:27:25.419Z,100197.53
2023-03-05T07:30:34.340Z,100191.13
2023-03-05T07:33:38.408Z,100191.75
2023-03-05T07:36:43.842Z,100188.28
2023-03-05T07:39:48.353Z,100194.47
2023-03-05T07:43:01.144Z,100185.00
2023-03-05T07:46:21.247Z,100190.97
2023-03-05T07:49:23.935Z,100198.16
2023-03-05T07:52:34.229Z,100199.44
2023-03-05T07:55:53.878Z,100191.31
2023-03-05T07:59:06.293Z,100184.78
2023-03-05T08:02:13.668Z,100185.63
2023-03-05T08:05:16.201Z,100188.19
2023-03-05T08:08:24.290Z,100192.34
2023-03-05T08:11:32.198Z,100181.69
2023-03-05T08:14:38.099Z,100188.13
2023-03-05T08:17:44.249Z,100188.78
2023-03-05T08:20:49.389Z,100196.53
2023-03-05T08:23:59.737Z,100183.81
2023-03-05T08:27:12.303Z,100187.44
2023-03-05T08:30:29.890Z,100180.88
2023-03-05T08:33:41.565Z,100190.94
2023-03-05T08:36:51.211Z,100178.97
2023-03-05T08:39:56.908Z,100183.19
2023-03-05T08:43:07.240Z,100180.03
2023-03-05T08:46:12.290Z,100178.84
2023-03-05T08:49:26.760Z,100168.31
2023-03-05T08:52:36.198Z,100173.63
2023-03-05T08:55:44.288Z,100183.41
2023-03-05T08:58:55.505Z,100164.72
2023-03-05T09:02:06.670Z,100164.78
2023-03-05T09:05:11.621Z,100170.59
2023-03-05T09:08:15.963Z,100166.00
2023-03-05T09:11:20.597Z,100163.72
2023-03-05T09:14:28.736Z,100158.72
2023-03-05T09:17:37.898Z,100167.81
2023-03-05T09:20:52.719Z,100167.75
2023-03-05T09:24:09.112Z,100168.56
2023-03-05T09:27:17.323Z,100162.94
2023-03-05T09:30:25.260Z,100167.63
2023-03-05T09:33:31.626Z,100166.25
2023-03-05T09:36:39.163Z,100154.00
2023-03-05T09:39:46.998Z,100161.44
2023-03-05T09:43:02.442Z,100154.50
2023-03-05T09:46:38.296Z,100156.00
2023-03-05T09:49:54.698Z,100154.25
2023-03-05T09:53:39.813Z,100154.50
2023-03-05T09:56:56.725Z,100141.63
2023-03-05T10:00:31.451Z,100144.28
2023-03-05T10:03:36.905Z,100136.47
2023-03-05T10:07:03.531Z,100130.22
2023-03-05T10:10:43.510Z,100146.66
2023-03-05T10:14:14.574Z,100134.63
2023-03-05T10:17:52.690Z,100137.88
2023-03-05T10:24:51.139Z,100121.56
2023-03-05T10:28:08.560Z,100116.88
2023-03-05T10:31:39.014Z,100112.44
2023-03-05T10:35:26.613Z,100124.28
2023-03-05T10:38:51.151Z,100112.75
2023-03-05T10:42:05.973Z,100109.38
2023-03-05T10:45:36.435Z,100098.44
2023-03-05T10:49:01.820Z,100103.16
2023-03-05T10:52:13.157Z,100105.78
2023-03-05T10:55:35.480Z,100110.25
2023-03-05T10:58:41.741Z,100098.72
2023-03-05T11:02:11.836Z,100079.81
2023-03-05T11:05:39.123Z,100090.06
2023-03-05T11:08:54.606Z,100088.69
2023-03-05T11:12:18.422Z,100093.66
2023-03-05T11:15:28.592Z,100073.47
2023-03-05T11:18:34.606Z,100077.94
2023-03-05T11:21:44.419Z,100069.88
2023-03-05T11:25:11.048Z,100068.00
2023-03-05T11:28:30.921Z,100070.88
2023-03-05T11:31:40.499Z,100072.66
2023-03-05T11:34:49.960Z,100063.91
2023-03-05T11:38:10.197Z,100067.38
2023-03-05T11:41:15.523Z,100065.09
2023-03-05T11:44:36.144Z,100047.34
2023-03-05T11:47:49.680Z,100059.63
2023-03-05T11:51:10.827Z,100042.59
2023-03-05T11:54:23.068Z,100035.22
2023-03-05T11:57:37.295Z,100026.34
2023-03-05T12:00:52.430Z,100037.88
2023-03-05T12:04:02.243Z,100030.28
2023-03-05T12:07:15.457Z,100033.72
2023-03-05T12:10:22.347Z,100026.13
2023-03-05T12:13:35.188Z,100015.13
2023-03-05T12:16:59.744Z,100018.28
2023-03-05T12:20:31.268Z,100012.47
2023-03-05T12:24:06.492Z,100001.22
2023-03-05T12:27:15.970Z,99997.00
2023-03-05T12:30:38.486Z,99992.75
2023-03-05T12:33:50.438Z,99984.63
2023-03-05T12:36:57.120Z,99985.50
2023-03-05T12:40:23.548Z,99980.41
2023-03-05T12:43:33.954Z,99968.38
2023-03-05T12:46:37.645Z,99969.97
2023-03-05T12:49:52.528Z,99952.19
2023-03-05T12:52:58.097Z,99960.31
2023-03-05T12:56:12.407Z,99969.94
2023-03-05T12:59:23.141Z,99965.03
2023-03-05T13:03:02.492Z,99965.53
2023-03-05T13:06:06.753Z,99962.47
2023-03-05T13:09:18.856Z,99960.22
2023-03-05T13:12:32.022Z,99951.50
2023-03-05T13:15:41.839Z,99957.50
2023-03-05T13:18:48.278Z,99950.41
2023-03-05T13:22:10.763Z,99953.56
2023-03-05T13:25:22.572Z,99953.25
2023-03-05T13:28:31.327Z,99960.06
2023-03-05T13:31:43.243Z,99960.81
2023-03-05T13:34:48.651Z,99946.69
2023-03-05T13:37:53.092Z,99948.00
2023-03-05T13:41:10.668Z,99950.31
2023-03-05T13:44:33.442Z,99949.81
2023-03-05T13:47:39.989Z,99949.81
2023-03-05T13:50:42.242Z,99957.41
2023-03-05T13:53:49.306Z,99945.03
2023-03-05T13:56:57.613Z,99954.94
2023-03-05T14:00:07.152Z,99947.31
2023-03-05T14:03:27.531Z,99951.47
2023-03-05T14:06:42.313Z,99954.91
2023-03-05T14:09:54.364Z,99952.53
2023-03-05T14:13:00.538Z,99944.13
2023-03-05T14:16:15.909Z,99955.13
2023-03-05T14:19:42.027Z,99955.94
2023-03-05T14:22:48.123Z,99945.19
2023-03-05T14:25:53.692Z,99937.09
2023-03-05T14:29:11.876Z,99928.22
2023-03-05T14:32:44.549Z,99935.28
2023-03-05T14:35:52.820Z,99933.44
2023-03-05T14:39:00.052Z,99924.28
2023-03-05T14:42:21.112Z,99922.94
2023-03-05T14:45:31.299Z,99914.56
2023-03-05T14:48:44.176Z,99904.41
2023-03-05T14:51:51.294Z,99899.44
2023-03-05T14:54:54.721Z,99903.63
2023-03-05T14:58:07.516Z,99901.22
2023-03-05T15:01:18.751Z,99897.31
2023-03-05T15:04:21.259Z,99891.31
2023-03-05T15:07:39.268Z,99898.41
2023-03-05T15:10:54.526Z,99896.56
2023-03-05T15:14:09.218Z,99894.97
2023-03-05T15:17:23.642Z,99899.91
2023-03-05T15:20:32.094Z,99896.53
2023-03-05T15:23:39.246Z,99904.34
2023-03-05T15:26:50.246Z,99909.84
2023-03-05T15:30:10.297Z,99912.69
2023-03-05T15:33:20.255Z,99895.69
2023-03-05T15:36:27.248Z,99891.97
2023-03-05T15:39:32.592Z,99905.00
2023-03-05T15:42:36.923Z,99908.88
2023-03-05T15:45:49.468Z,99916.59
2023-03-05T15:48:56.612Z,99918.09
2023-03-05T15:52:02.100Z,99913.94
2023-03-05T15:55:07.348Z,99913.31
2023-03-05T15:58:13.044Z,99914.03
2023-03-05T16:01:17.989Z,99910.00
2023-03-05T16:04:24.151Z,99921.69
2023-03-05T16:07:26.954Z,99924.75
2023-03-05T16:10:43.224Z,99915.81
2023-03-05T16:13:45.632Z,99925.19
2023-03-05T16:16:54.377Z,99923.59
2023-03-05T16:19:59.505Z,99935.63
2023-03-05T16:23:16.106Z,99932.63
2023-03-05T16:26:25.427Z,99930.47
2023-03-05T16:29:39.598Z,99928.91
2023-03-05T16:32:45.292Z,99928.63
2023-03-05T16:35:50.583Z,99916.31
2023-03-05T16:38:58.724Z,99921.91
2023-03-05T16:42:08.542Z,99924.41
2023-03-05T16:45:16.020Z,99921.56
2023-03-05T16:48:19.421Z,99924.16
2023-03-05T16:51:37.011Z,99938.78
2023-03-05T16:54:44.615Z,99939.59
2023-03-05T16:57:48.708Z,99925.91
2023-03-05T17:00:50.992Z,99925.94
2023-03-05T17:03:54.065Z,99920.16
2023-03-05T17:07:08.836Z,99931.06
2023-03-05T17:10:14.682Z,99917.69
2023-03-05T17:13:22.675Z,99935.94
2023-03-05T17:16:28.003Z,99949.13
2023-03-05T17:19:36.311Z,99938.09
2023-03-05T17:22:38.687Z,99940.94
2023-03-05T17:25:44.040Z,99936.69
2023-03-05T17:28:54.385Z,99935.81
2023-03-05T17:32:00.551Z,99937.72
2023-03-05T17:35:05.150Z,99944.25
2023-03-05T17:38:15.330Z,99945.69
2023-03-05T17:41:20.390Z,99945.22
2023-03-05T17:44:29.458Z,99944.84
2023-03-05T17:47:37.222Z,99942.41
2023-03-05T17:50:48.677Z,99949.03
2023-03-05T17:53:52.896Z,99949.91
2023-03-05T17:57:01.166Z,99955.59
2023-03-05T18:00:07.277Z,99954.78
2023-03-05T18:03:19.339Z,99951.41
2023-03-05T18:06:24.642Z,99953.44
2023-03-05T18:09:37.855Z,99962.88
2023-03-05T18:12:42.151Z,99956.50
2023-03-05T18:15:51.401Z,99953.63
2023-03-05T18:19:01.952Z,99946.31
2023-03-05T18:22:17.587Z,99945.09
2023-03-05T18:25:25.844Z,99941.03
2023-03-05T18:28:28.887Z,99937.41
2023-03-05T18:31:35.996Z,99934.09
2023-03-05T18:34:50.580Z,99937.66
2023-03-05T18:38:05.900Z,99936.88
2023-03-05T18:41:09.492Z,99937.44
2023-03-05T18:44:22.002Z,99948.41
2023-03-05T18:47:24.386Z,99942.56
2023-03-05T18:50:32.605Z,99946.75
2023-03-05T18:53:34.921Z,99939.06
2023-03-05T18:56:41.310Z,99950.81
2023-03-05T18:59:45.961Z,99942.09
2023-03-05T19:02:58.406Z,99935.41
2023-03-05T19:06:06.238Z,99941.31
2023-03-05T19:09:53.282Z,99938.81
2023-03-05T19:13:44.582Z,99945.19
2023-03-05T19:16:55.270Z,99942.19
2023-03-05T19:20:04.957Z,99941.81
2023-03-05T19:23:14.316Z,99944.69
2023-03-05T19:26:24.906Z,99942.19
2023-03-05T19:29:40.352Z,99936.22
2023-03-05T19:32:48.401Z,99938.66
2023-03-05T19:35:53.446Z,99936.03
2023-03-05T19:39:02.176Z,99932.34
2023-03-05T19:42:12.030Z,99934.28
2023-03-05T19:45:16.692Z,99935.56
2023-03-05T19:48:23.112Z,99935.09
2023-03-05T19:51:30.766Z,99932.47
2023-03-05T19:54:35.428Z,99942.09
2023-03-05T19:57:46.635Z,99939.03
2023-03-05T20:00:53.612Z,99937.34
2023-03-05T20:03:59.860Z,99937.34
2023-03-05T20:07:09.404Z,99936.66
2023-03-05T20:10:16.137Z,99930.50
2023-03-05T20:13:24.236Z,99932.03
2023-03-05T20:16:41.395Z,99933.44
2023-03-05T20:19:43.674Z,99926.03
2023-03-05T20:22:55.186Z,99928.38
2023-03-05T20:26:01.529Z,99921.06
2023-03-05T20:29:15.441Z,99925.94
2023-03-05T20:32:19.617Z,99930.28
2023-03-05T20:35:26.717Z,99928.88
2023-03-05T20:38:30.936Z,99924.59
2023-03-05T20:41:39.184Z,99920.97
2023-03-05T20:44:57.007Z,99918.47
2023-03-05T20:48:02.315Z,99923.81
2023-03-05T20:51:24.744Z,99923.47
2023-03-05T20:54:30.730Z,99926.53
2023-03-05T20:57:33.214Z,99921.13
2023-03-05T21:00:55.099Z,99915.66
2023-03-05T21:04:00.917Z,99923.72
2023-03-05T21:07:05.356Z,99923.09
2023-03-05T21:10:12.050Z,99919.38
2023-03-05T21:13:21.254Z,99913.97
2023-03-05T21:16:30.116Z,99920.03
2023-03-05T21:19:38.010Z,99915.84
2023-03-05T21:22:43.590Z,99910.63
2023-03-05T21:25:47.004Z,99910.38
2023-03-05T21:28:54.508Z,99913.25
2023-03-05T21:31:59.794Z,99915.91
2023-03-05T21:35:08.095Z,99914.81
2023-03-05T21:38:11.629Z,99908.56
2023-03-05T21:41:37.133Z,99907.56
2023-03-05T21:44:42.062Z,99919.38
2023-03-05T21:47:56.250Z,99909.50
2023-03-05T21:50:58.949Z,99909.88
2023-03-05T21:54:08.957Z,99907.47
2023-03-05T21:57:14.566Z,99899.34
2023-03-05T22:00:22.673Z,99895.13
2023-03-05T22:03:33.190Z,99893.78
2023-03-05T22:06:40.540Z,99885.94
2023-03-05T22:09:58.905Z,99891.28
2023-03-05T22:13:14.468Z,99895.78
2023-03-05T22:16:25.881Z,99887.84
2023-03-05T22:19:29.911Z,99892.31
2023-03-05T22:22:42.188Z,99883.91
2023-03-05T22:25:50.504Z,99889.50
2023-03-05T22:28:57.577Z,99882.47
2023-03-05T22:31:59.887Z,99888.00
2023-03-05T22:35:08.176Z,99876.53
2023-03-05T22:38:17.991Z,99879.53
2023-03-05T22:41:21.571Z,99872.34
2023-03-05T22:44:25.110Z,99870.34
2023-03-05T22:47:38.872Z,99865.38
2023-03-05T22:50:47.380Z,99864.00
2023-03-05T22:53:51.510Z,99865.44
2023-03-05T22:57:00.707Z,99864.94
2023-03-05T23:00:12.379Z,99876.41
2023-03-05T23:03:17.819Z,99866.41
2023-03-05T23:06:23.353Z,99864.13
2023-03-05T23:09:34.260Z,99859.06
2023-03-05T23:12:40.184Z,99860.53
2023-03-05T23:15:48.048Z,99867.00
2023-03-05T23:18:50.410Z,99863.00
2023-03-05T23:22:02.548Z,99866.22
2023-03-05T23:25:07.490Z,99854.47
2023-03-05T23:28:09.866Z,99859.06
2023-03-05T23:31:12.233Z,99861.06
2023-03-05T23:34:16.909Z,99863.31
2023-03-05T23:37:21.928Z,99856.25
2023-03-05T23:40:35.248Z,99862.53
2023-03-05T23:43:42.782Z,99864.75
2023-03-05T23:46:57.273Z,99864.75
2023-03-05T23:50:02.840Z,99857.50
2023-03-05T23:53:06.629Z,99850.84
2023-03-05T23:56:17.040Z,99851.88
2023-03-05T23:59:32.062Z,99849.50
